Ekron, Kentucky
Current Conditions -  °F | °C
As of 2:58 AM on Wednesday 22 Oct 2014 (Local Time) from KFTK Reporting Station
Clear Clear  
Wind Chill: 44°   Ceiling: Unl
Heat Index: 46°   Visibility: 10mi
Dew Point: 41°   Wind: 5mph
Humidity: 83%   Direction: 20°NNE
Pressure: 30.17"   Gusts: NA
Location:  37.93°N, 86.18°W
Report Text: KFTK 220658Z AUTO 02004KT 10SM CLR 08/05 A3017 RMK AO2 SLP220 T00780051
Loading
Personal Weather Stations






























Interactive Weather Map
Tropical Storm Tracking
New forecast layout! Learn more

10-Day Weather Forecast

Advertisements
Track Severe Weather on mobile